Main page
METAR-TAF:

METAR-TAF

Airports :

Santa Maria Airport

Aracaju, Sergipe, Brazil

latitude: 10-59S, longitude: 037-04W, elevation: 8 m

Current weather observation

The report was made 1 hour and 3 minutes ago, at 02:00 UTC
Wind 10 kt from the East
Temperature 26°C
Humidity 70%
Pressure 1018 hPa
Visibility 10 km or more
Scattered clouds at a height of 1700 ft

METAR: SBAR 240200Z 10010KT 9999 SCT017 26/20 Q1018

Time: 00:03 (03:03 UTC)

Forecast

The report was made 6 hours and 3 minutes ago, at 21:00 UTC
Forecast valid from 24 at 00 UTC to 24 at 12 UTC
Wind 8 kt from the East
Visibility 10 km or more
Scattered clouds at a height of 1700 ft

TAF: SBAR 232100Z 2400/2412 10008KT 9999 SCT017 TN24/2408Z TX26/2411Z RMK PEA

Weather observations and forecasts of more than 4000 airports (METAR and TAF reports).

The available stations are represented by yellow and red dots on the map.

Hover mouse over dot to see the name of the station.

Then click to see weather observations and forecasts.

To change the map : click on the green buttons with a black cross to zoom in, on the green button with a dash to zoom out, or on the green arrows for adjacent maps.


METAR-TAF: